Terminal Aerodrome Forecast
Issued by NWS Shreveport, LA

Home | Current Version | Previous Version | Text Only | Print | Product List | Glossary On
Versions: 1 2 3 4 5 6 7 8 9 10 11 12 13 14 15 16 17 18
919
FTUS44 KSHV 182320
TAFTYR
TAF
KTYR 182320Z 1900/1924 34015G28KT P6SM FEW050
     FM190200 34011KT P6SM SCT280
     FM190400 34005KT P6SM SKC
     FM191500 36008KT P6SM SKC
     FM192200 36005KT P6SM SKC=

USA.gov is the U.S. government's official web portal to all federal, state and local government web resources and services.